If you wish to contribute or participate in the discussions about articles you are invited to join SKYbrary as a registered user

 Actions

Toledo Airport

From SKYbrary Wiki

SBTD
Airport
ICAO: SBTD – IATA: TOW
Summary
Name Toledo Airport
Region South America and Caribbean
Territory Brazil BR.gif
Location Toledo, Parana
Serving Toledo
Elevation 561.746 m
1,843 ft561.746 m
Coordinates 24° 41' 7.01" S, 53° 41' 48.01" W
Runways
Designator Length Width Surface ROPS
2/20 1670 m5,479.003 ft
30 m98.425 ft
ASP /


METAR
Observation SBTD 161500Z 08006KT 9999 FEW035 30/18 Q1019
Station TOLEDO
Date/Time 16 October 2019 15:00:00
Wind direction 80°
Wind speed 06 kts
Lowest cloud amount few clouds
Temperature 30°C
Dew point 18°C
Humidity 48%
QNH 1019 hPa
Weather condition n/a

Luiz dal Canalle Filho Airport is the airport serving Toledo, Brazil.

Climatology

Tropical savanna climate (Köppen climate classification Cfa)

Maps

Terrain

Loading map...

Airport Layout

Loading map...


Accidents & Serious Incidents at or in vicinity of SBTD

None on SKYbrary